sensor_id;sensor_type;location;lat;lon;timestamp;P1;durP1;ratioP1;P2;durP2;ratioP2
70985;SDS011;58645;43.068;25.610;2024-02-15T00:01:57;9.55;;;5.63;;
70985;SDS011;58645;43.068;25.610;2024-02-15T00:04:22;7.78;;;4.75;;
70985;SDS011;58645;43.068;25.610;2024-02-15T00:06:48;7.55;;;5.53;;
70985;SDS011;58645;43.068;25.610;2024-02-15T00:09:14;9.70;;;6.00;;
70985;SDS011;58645;43.068;25.610;2024-02-15T00:11:39;9.77;;;5.50;;
70985;SDS011;58645;43.068;25.610;2024-02-15T00:14:05;8.98;;;4.78;;
70985;SDS011;58645;43.068;25.610;2024-02-15T00:16:32;8.45;;;5.25;;
70985;SDS011;58645;43.068;25.610;2024-02-15T00:18:59;7.35;;;4.38;;
70985;SDS011;58645;43.068;25.610;2024-02-15T00:21:25;10.73;;;4.97;;
70985;SDS011;58645;43.068;25.610;2024-02-15T00:23:51;6.57;;;4.60;;
70985;SDS011;58645;43.068;25.610;2024-02-15T00:26:21;8.75;;;3.97;;
70985;SDS011;58645;43.068;25.610;2024-02-15T00:28:46;7.60;;;5.20;;
70985;SDS011;58645;43.068;25.610;2024-02-15T00:31:13;7.10;;;4.13;;
70985;SDS011;58645;43.068;25.610;2024-02-15T00:33:39;7.30;;;4.50;;
70985;SDS011;58645;43.068;25.610;2024-02-15T00:36:05;9.05;;;5.35;;
70985;SDS011;58645;43.068;25.610;2024-02-15T00:38:34;10.38;;;6.10;;
70985;SDS011;58645;43.068;25.610;2024-02-15T00:41:00;9.77;;;6.38;;
70985;SDS011;58645;43.068;25.610;2024-02-15T00:43:29;8.63;;;5.55;;
70985;SDS011;58645;43.068;25.610;2024-02-15T00:45:54;9.60;;;5.25;;
70985;SDS011;58645;43.068;25.610;2024-02-15T00:48:20;8.77;;;5.50;;
70985;SDS011;58645;43.068;25.610;2024-02-15T00:50:46;9.40;;;5.45;;
70985;SDS011;58645;43.068;25.610;2024-02-15T00:53:12;9.43;;;6.57;;
70985;SDS011;58645;43.068;25.610;2024-02-15T00:55:38;8.02;;;5.47;;
70985;SDS011;58645;43.068;25.610;2024-02-15T00:58:03;9.73;;;6.10;;
70985;SDS011;58645;43.068;25.610;2024-02-15T01:00:29;7.65;;;5.18;;
70985;SDS011;58645;43.068;25.610;2024-02-15T01:02:55;9.93;;;5.95;;
70985;SDS011;58645;43.068;25.610;2024-02-15T01:05:21;8.90;;;5.50;;
70985;SDS011;58645;43.068;25.610;2024-02-15T01:07:47;10.32;;;5.03;;
70985;SDS011;58645;43.068;25.610;2024-02-15T01:10:16;9.70;;;5.88;;
70985;SDS011;58645;43.068;25.610;2024-02-15T01:12:42;10.63;;;5.72;;
70985;SDS011;58645;43.068;25.610;2024-02-15T01:15:09;11.73;;;5.82;;
70985;SDS011;58645;43.068;25.610;2024-02-15T01:17:34;10.20;;;5.78;;
70985;SDS011;58645;43.068;25.610;2024-02-15T01:20:00;11.32;;;5.90;;
70985;SDS011;58645;43.068;25.610;2024-02-15T01:22:26;9.57;;;5.85;;
70985;SDS011;58645;43.068;25.610;2024-02-15T01:24:52;11.05;;;6.47;;
70985;SDS011;58645;43.068;25.610;2024-02-15T01:27:18;8.15;;;4.82;;
70985;SDS011;58645;43.068;25.610;2024-02-15T01:29:44;8.02;;;5.65;;
70985;SDS011;58645;43.068;25.610;2024-02-15T01:32:10;10.30;;;5.53;;
70985;SDS011;58645;43.068;25.610;2024-02-15T01:34:36;10.27;;;6.65;;
70985;SDS011;58645;43.068;25.610;2024-02-15T01:37:01;9.40;;;5.88;;
70985;SDS011;58645;43.068;25.610;2024-02-15T01:39:27;11.48;;;6.55;;
70985;SDS011;58645;43.068;25.610;2024-02-15T01:41:53;12.63;;;6.28;;
70985;SDS011;58645;43.068;25.610;2024-02-15T01:44:21;10.35;;;5.78;;
70985;SDS011;58645;43.068;25.610;2024-02-15T01:46:49;8.80;;;5.32;;
70985;SDS011;58645;43.068;25.610;2024-02-15T01:49:18;8.98;;;5.32;;
70985;SDS011;58645;43.068;25.610;2024-02-15T01:51:47;9.63;;;5.95;;
70985;SDS011;58645;43.068;25.610;2024-02-15T01:54:15;8.27;;;5.57;;
70985;SDS011;58645;43.068;25.610;2024-02-15T01:59:08;10.57;;;4.85;;
70985;SDS011;58645;43.068;25.610;2024-02-15T02:01:35;9.40;;;5.63;;
70985;SDS011;58645;43.068;25.610;2024-02-15T02:04:01;11.85;;;5.03;;
70985;SDS011;58645;43.068;25.610;2024-02-15T02:06:28;10.02;;;5.30;;
70985;SDS011;58645;43.068;25.610;2024-02-15T02:11:21;11.98;;;5.35;;
70985;SDS011;58645;43.068;25.610;2024-02-15T02:13:48;15.48;;;8.00;;
70985;SDS011;58645;43.068;25.610;2024-02-15T02:18:54;16.02;;;6.70;;
70985;SDS011;58645;43.068;25.610;2024-02-15T02:21:21;12.25;;;5.32;;
70985;SDS011;58645;43.068;25.610;2024-02-15T02:23:51;14.13;;;7.15;;
70985;SDS011;58645;43.068;25.610;2024-02-15T02:26:20;11.50;;;7.07;;
70985;SDS011;58645;43.068;25.610;2024-02-15T02:28:47;15.95;;;9.65;;
70985;SDS011;58645;43.068;25.610;2024-02-15T02:31:13;10.68;;;6.70;;
70985;SDS011;58645;43.068;25.610;2024-02-15T02:33:39;10.63;;;6.60;;
70985;SDS011;58645;43.068;25.610;2024-02-15T02:36:12;11.57;;;5.50;;
70985;SDS011;58645;43.068;25.610;2024-02-15T02:38:38;14.98;;;6.75;;
70985;SDS011;58645;43.068;25.610;2024-02-15T02:41:04;9.40;;;5.07;;
70985;SDS011;58645;43.068;25.610;2024-02-15T02:43:30;10.60;;;5.57;;
70985;SDS011;58645;43.068;25.610;2024-02-15T02:45:55;9.43;;;5.88;;
70985;SDS011;58645;43.068;25.610;2024-02-15T02:48:21;11.88;;;6.38;;
70985;SDS011;58645;43.068;25.610;2024-02-15T02:50:47;9.50;;;5.57;;
70985;SDS011;58645;43.068;25.610;2024-02-15T02:55:43;10.52;;;5.47;;
70985;SDS011;58645;43.068;25.610;2024-02-15T02:58:09;11.10;;;6.15;;
70985;SDS011;58645;43.068;25.610;2024-02-15T03:00:34;11.68;;;6.82;;
70985;SDS011;58645;43.068;25.610;2024-02-15T03:03:00;11.32;;;6.55;;
70985;SDS011;58645;43.068;25.610;2024-02-15T03:05:26;11.88;;;5.28;;
70985;SDS011;58645;43.068;25.610;2024-02-15T03:07:52;10.75;;;6.35;;
70985;SDS011;58645;43.068;25.610;2024-02-15T03:10:18;11.35;;;5.53;;
70985;SDS011;58645;43.068;25.610;2024-02-15T03:12:44;11.35;;;5.82;;
70985;SDS011;58645;43.068;25.610;2024-02-15T03:15:12;13.65;;;6.43;;
70985;SDS011;58645;43.068;25.610;2024-02-15T03:17:42;11.60;;;6.25;;
70985;SDS011;58645;43.068;25.610;2024-02-15T03:20:10;10.63;;;5.32;;
70985;SDS011;58645;43.068;25.610;2024-02-15T03:22:45;11.02;;;5.55;;
70985;SDS011;58645;43.068;25.610;2024-02-15T03:25:20;13.00;;;7.05;;
70985;SDS011;58645;43.068;25.610;2024-02-15T03:27:49;12.70;;;6.32;;
70985;SDS011;58645;43.068;25.610;2024-02-15T03:30:17;12.13;;;5.47;;
70985;SDS011;58645;43.068;25.610;2024-02-15T03:32:45;11.93;;;5.82;;
70985;SDS011;58645;43.068;25.610;2024-02-15T03:35:13;13.05;;;5.57;;
70985;SDS011;58645;43.068;25.610;2024-02-15T03:37:42;12.55;;;8.90;;
70985;SDS011;58645;43.068;25.610;2024-02-15T03:40:08;11.20;;;5.60;;
70985;SDS011;58645;43.068;25.610;2024-02-15T03:42:35;11.23;;;6.20;;
70985;SDS011;58645;43.068;25.610;2024-02-15T03:45:05;10.63;;;6.22;;
70985;SDS011;58645;43.068;25.610;2024-02-15T03:47:34;9.07;;;5.85;;
70985;SDS011;58645;43.068;25.610;2024-02-15T03:50:04;10.98;;;5.70;;
70985;SDS011;58645;43.068;25.610;2024-02-15T03:52:31;9.43;;;6.18;;
70985;SDS011;58645;43.068;25.610;2024-02-15T03:54:57;9.75;;;6.20;;
70985;SDS011;58645;43.068;25.610;2024-02-15T03:57:24;10.23;;;5.60;;
70985;SDS011;58645;43.068;25.610;2024-02-15T03:59:49;10.85;;;6.57;;
70985;SDS011;58645;43.068;25.610;2024-02-15T04:02:20;9.75;;;5.50;;
70985;SDS011;58645;43.068;25.610;2024-02-15T04:04:45;15.32;;;7.28;;
70985;SDS011;58645;43.068;25.610;2024-02-15T04:07:17;13.32;;;6.85;;
70985;SDS011;58645;43.068;25.610;2024-02-15T04:09:44;13.77;;;7.45;;
70985;SDS011;58645;43.068;25.610;2024-02-15T04:12:10;12.63;;;6.57;;
70985;SDS011;58645;43.068;25.610;2024-02-15T04:14:37;13.60;;;7.25;;
70985;SDS011;58645;43.068;25.610;2024-02-15T04:17:05;14.00;;;7.65;;
70985;SDS011;58645;43.068;25.610;2024-02-15T04:19:31;12.80;;;8.18;;
70985;SDS011;58645;43.068;25.610;2024-02-15T04:21:57;9.15;;;4.65;;
70985;SDS011;58645;43.068;25.610;2024-02-15T04:24:24;9.27;;;5.40;;
70985;SDS011;58645;43.068;25.610;2024-02-15T04:26:51;12.75;;;7.60;;
70985;SDS011;58645;43.068;25.610;2024-02-15T04:29:16;12.95;;;6.95;;
70985;SDS011;58645;43.068;25.610;2024-02-15T04:31:46;12.65;;;6.03;;
70985;SDS011;58645;43.068;25.610;2024-02-15T04:34:18;9.73;;;5.22;;
70985;SDS011;58645;43.068;25.610;2024-02-15T04:36:45;12.27;;;6.55;;
70985;SDS011;58645;43.068;25.610;2024-02-15T04:39:19;12.02;;;6.93;;
70985;SDS011;58645;43.068;25.610;2024-02-15T04:41:53;14.77;;;7.78;;
70985;SDS011;58645;43.068;25.610;2024-02-15T04:44:20;13.48;;;7.32;;
70985;SDS011;58645;43.068;25.610;2024-02-15T04:46:46;13.05;;;7.03;;
70985;SDS011;58645;43.068;25.610;2024-02-15T04:49:14;11.35;;;7.18;;
70985;SDS011;58645;43.068;25.610;2024-02-15T04:51:40;13.18;;;7.75;;
70985;SDS011;58645;43.068;25.610;2024-02-15T04:54:07;17.25;;;10.05;;
70985;SDS011;58645;43.068;25.610;2024-02-15T04:56:33;19.20;;;11.32;;
70985;SDS011;58645;43.068;25.610;2024-02-15T04:59:01;21.00;;;10.85;;
70985;SDS011;58645;43.068;25.610;2024-02-15T05:01:27;20.95;;;12.10;;
70985;SDS011;58645;43.068;25.610;2024-02-15T05:03:54;21.83;;;11.95;;
70985;SDS011;58645;43.068;25.610;2024-02-15T05:06:20;21.60;;;11.68;;
70985;SDS011;58645;43.068;25.610;2024-02-15T05:08:46;16.88;;;9.43;;
70985;SDS011;58645;43.068;25.610;2024-02-15T05:11:12;16.48;;;9.20;;
70985;SDS011;58645;43.068;25.610;2024-02-15T05:13:47;14.13;;;8.25;;
70985;SDS011;58645;43.068;25.610;2024-02-15T05:16:17;15.52;;;9.27;;
70985;SDS011;58645;43.068;25.610;2024-02-15T05:18:43;13.75;;;7.10;;
70985;SDS011;58645;43.068;25.610;2024-02-15T05:21:10;19.00;;;10.73;;
70985;SDS011;58645;43.068;25.610;2024-02-15T05:23:38;27.05;;;12.20;;
70985;SDS011;58645;43.068;25.610;2024-02-15T05:26:08;21.95;;;12.43;;
70985;SDS011;58645;43.068;25.610;2024-02-15T05:31:17;20.40;;;11.27;;
70985;SDS011;58645;43.068;25.610;2024-02-15T05:33:47;19.85;;;10.63;;
70985;SDS011;58645;43.068;25.610;2024-02-15T05:36:16;18.13;;;10.32;;
70985;SDS011;58645;43.068;25.610;2024-02-15T05:38:55;14.65;;;8.35;;
70985;SDS011;58645;43.068;25.610;2024-02-15T05:41:36;18.88;;;10.73;;
70985;SDS011;58645;43.068;25.610;2024-02-15T05:44:02;17.77;;;9.40;;
70985;SDS011;58645;43.068;25.610;2024-02-15T05:46:31;19.70;;;8.85;;
70985;SDS011;58645;43.068;25.610;2024-02-15T05:49:08;24.65;;;12.80;;
70985;SDS011;58645;43.068;25.610;2024-02-15T05:51:43;22.00;;;11.70;;
70985;SDS011;58645;43.068;25.610;2024-02-15T06:02:17;16.67;;;8.70;;
70985;SDS011;58645;43.068;25.610;2024-02-15T06:04:45;16.98;;;8.68;;
70985;SDS011;58645;43.068;25.610;2024-02-15T06:07:14;19.17;;;10.65;;
70985;SDS011;58645;43.068;25.610;2024-02-15T06:09:44;16.33;;;8.77;;
70985;SDS011;58645;43.068;25.610;2024-02-15T06:12:09;17.58;;;9.75;;
70985;SDS011;58645;43.068;25.610;2024-02-15T06:14:35;19.27;;;10.70;;
70985;SDS011;58645;43.068;25.610;2024-02-15T06:17:01;20.42;;;11.45;;
70985;SDS011;58645;43.068;25.610;2024-02-15T06:19:30;18.48;;;10.32;;
70985;SDS011;58645;43.068;25.610;2024-02-15T06:21:57;20.02;;;10.52;;
70985;SDS011;58645;43.068;25.610;2024-02-15T06:24:23;19.80;;;12.13;;
70985;SDS011;58645;43.068;25.610;2024-02-15T06:26:49;23.13;;;13.35;;
70985;SDS011;58645;43.068;25.610;2024-02-15T06:29:24;23.00;;;12.90;;
70985;SDS011;58645;43.068;25.610;2024-02-15T06:32:09;28.00;;;13.77;;
70985;SDS011;58645;43.068;25.610;2024-02-15T06:34:56;21.90;;;12.93;;
70985;SDS011;58645;43.068;25.610;2024-02-15T06:37:44;19.00;;;11.20;;
70985;SDS011;58645;43.068;25.610;2024-02-15T06:40:29;17.70;;;10.15;;
70985;SDS011;58645;43.068;25.610;2024-02-15T06:45:36;18.15;;;10.15;;
70985;SDS011;58645;43.068;25.610;2024-02-15T06:48:06;18.83;;;11.27;;
70985;SDS011;58645;43.068;25.610;2024-02-15T06:50:36;19.92;;;11.13;;
70985;SDS011;58645;43.068;25.610;2024-02-15T06:53:02;18.42;;;9.30;;
70985;SDS011;58645;43.068;25.610;2024-02-15T06:55:28;20.92;;;10.18;;
70985;SDS011;58645;43.068;25.610;2024-02-15T06:58:17;19.92;;;11.05;;
70985;SDS011;58645;43.068;25.610;2024-02-15T07:00:43;20.45;;;11.93;;
70985;SDS011;58645;43.068;25.610;2024-02-15T07:03:15;23.80;;;12.85;;
70985;SDS011;58645;43.068;25.610;2024-02-15T07:05:50;24.77;;;13.80;;
70985;SDS011;58645;43.068;25.610;2024-02-15T07:08:35;25.27;;;13.75;;
70985;SDS011;58645;43.068;25.610;2024-02-15T07:11:01;25.35;;;13.20;;
70985;SDS011;58645;43.068;25.610;2024-02-15T07:13:32;25.25;;;14.00;;
70985;SDS011;58645;43.068;25.610;2024-02-15T07:15:59;21.98;;;11.52;;
70985;SDS011;58645;43.068;25.610;2024-02-15T07:18:25;25.88;;;13.90;;
70985;SDS011;58645;43.068;25.610;2024-02-15T07:20:53;21.17;;;12.23;;
70985;SDS011;58645;43.068;25.610;2024-02-15T07:23:49;20.88;;;12.57;;
70985;SDS011;58645;43.068;25.610;2024-02-15T07:26:19;20.38;;;11.80;;
70985;SDS011;58645;43.068;25.610;2024-02-15T07:28:52;20.92;;;10.45;;
70985;SDS011;58645;43.068;25.610;2024-02-15T07:31:28;18.38;;;10.68;;
70985;SDS011;58645;43.068;25.610;2024-02-15T07:33:54;17.35;;;9.32;;
70985;SDS011;58645;43.068;25.610;2024-02-15T07:36:24;19.10;;;9.55;;
70985;SDS011;58645;43.068;25.610;2024-02-15T07:38:54;13.40;;;9.07;;
70985;SDS011;58645;43.068;25.610;2024-02-15T07:41:26;15.77;;;9.43;;
70985;SDS011;58645;43.068;25.610;2024-02-15T07:43:56;14.77;;;7.95;;
70985;SDS011;58645;43.068;25.610;2024-02-15T07:46:23;11.23;;;5.22;;
70985;SDS011;58645;43.068;25.610;2024-02-15T07:49:07;11.32;;;6.03;;
70985;SDS011;58645;43.068;25.610;2024-02-15T07:51:36;6.75;;;4.93;;
70985;SDS011;58645;43.068;25.610;2024-02-15T07:54:05;8.68;;;5.05;;
70985;SDS011;58645;43.068;25.610;2024-02-15T07:59:24;8.93;;;5.72;;
70985;SDS011;58645;43.068;25.610;2024-02-15T08:02:34;8.50;;;5.18;;
70985;SDS011;58645;43.068;25.610;2024-02-15T08:05:00;9.80;;;6.70;;
70985;SDS011;58645;43.068;25.610;2024-02-15T08:07:29;10.25;;;7.85;;
70985;SDS011;58645;43.068;25.610;2024-02-15T08:09:58;10.32;;;5.95;;
70985;SDS011;58645;43.068;25.610;2024-02-15T08:12:25;11.48;;;6.57;;
70985;SDS011;58645;43.068;25.610;2024-02-15T08:14:51;7.80;;;5.13;;
70985;SDS011;58645;43.068;25.610;2024-02-15T08:17:18;8.60;;;5.50;;
70985;SDS011;58645;43.068;25.610;2024-02-15T08:19:46;7.63;;;4.80;;
70985;SDS011;58645;43.068;25.610;2024-02-15T08:22:12;8.65;;;6.70;;
70985;SDS011;58645;43.068;25.610;2024-02-15T08:24:38;15.35;;;11.35;;
70985;SDS011;58645;43.068;25.610;2024-02-15T08:27:06;8.20;;;5.88;;
70985;SDS011;58645;43.068;25.610;2024-02-15T08:29:32;10.80;;;6.05;;
70985;SDS011;58645;43.068;25.610;2024-02-15T08:31:58;9.63;;;7.97;;
70985;SDS011;58645;43.068;25.610;2024-02-15T08:34:31;9.52;;;6.07;;
70985;SDS011;58645;43.068;25.610;2024-02-15T08:37:03;8.27;;;4.93;;
70985;SDS011;58645;43.068;25.610;2024-02-15T08:39:57;13.82;;;11.30;;
70985;SDS011;58645;43.068;25.610;2024-02-15T08:42:26;12.40;;;8.43;;
70985;SDS011;58645;43.068;25.610;2024-02-15T08:44:52;9.25;;;5.65;;
70985;SDS011;58645;43.068;25.610;2024-02-15T08:47:18;8.70;;;6.15;;
70985;SDS011;58645;43.068;25.610;2024-02-15T09:00:21;11.10;;;7.30;;
70985;SDS011;58645;43.068;25.610;2024-02-15T09:02:58;9.95;;;7.50;;
70985;SDS011;58645;43.068;25.610;2024-02-15T09:08:42;11.65;;;8.38;;
70985;SDS011;58645;43.068;25.610;2024-02-15T09:13:38;10.02;;;8.02;;
70985;SDS011;58645;43.068;25.610;2024-02-15T09:16:04;13.05;;;8.10;;
70985;SDS011;58645;43.068;25.610;2024-02-15T09:18:30;11.32;;;5.72;;
70985;SDS011;58645;43.068;25.610;2024-02-15T09:20:59;10.65;;;7.00;;
70985;SDS011;58645;43.068;25.610;2024-02-15T09:23:30;8.60;;;5.43;;
70985;SDS011;58645;43.068;25.610;2024-02-15T09:26:11;7.68;;;5.15;;
70985;SDS011;58645;43.068;25.610;2024-02-15T09:28:40;9.57;;;6.63;;
70985;SDS011;58645;43.068;25.610;2024-02-15T09:31:06;9.23;;;5.82;;
70985;SDS011;58645;43.068;25.610;2024-02-15T09:33:32;7.70;;;4.50;;
70985;SDS011;58645;43.068;25.610;2024-02-15T09:35:58;7.35;;;5.28;;
70985;SDS011;58645;43.068;25.610;2024-02-15T09:38:25;6.65;;;5.10;;
70985;SDS011;58645;43.068;25.610;2024-02-15T09:40:50;9.30;;;5.30;;
70985;SDS011;58645;43.068;25.610;2024-02-15T09:43:16;8.50;;;6.20;;
70985;SDS011;58645;43.068;25.610;2024-02-15T09:45:43;10.63;;;6.35;;
70985;SDS011;58645;43.068;25.610;2024-02-15T09:48:09;30.52;;;18.40;;
70985;SDS011;58645;43.068;25.610;2024-02-15T09:50:39;20.20;;;13.40;;
70985;SDS011;58645;43.068;25.610;2024-02-15T09:53:08;13.48;;;7.32;;
70985;SDS011;58645;43.068;25.610;2024-02-15T09:55:45;12.13;;;6.05;;
70985;SDS011;58645;43.068;25.610;2024-02-15T09:58:16;8.48;;;5.53;;
70985;SDS011;58645;43.068;25.610;2024-02-15T10:00:43;9.45;;;4.95;;
70985;SDS011;58645;43.068;25.610;2024-02-15T10:03:11;8.10;;;5.78;;
70985;SDS011;58645;43.068;25.610;2024-02-15T10:05:48;8.05;;;5.32;;
70985;SDS011;58645;43.068;25.610;2024-02-15T10:08:20;6.75;;;4.40;;
70985;SDS011;58645;43.068;25.610;2024-02-15T10:13:57;8.63;;;5.22;;
70985;SDS011;58645;43.068;25.610;2024-02-15T10:16:52;8.80;;;5.50;;
70985;SDS011;58645;43.068;25.610;2024-02-15T10:19:19;7.32;;;5.60;;
70985;SDS011;58645;43.068;25.610;2024-02-15T10:22:06;8.38;;;5.18;;
70985;SDS011;58645;43.068;25.610;2024-02-15T10:24:33;8.73;;;5.40;;
70985;SDS011;58645;43.068;25.610;2024-02-15T10:27:03;8.10;;;5.68;;
70985;SDS011;58645;43.068;25.610;2024-02-15T10:29:36;10.77;;;6.07;;
70985;SDS011;58645;43.068;25.610;2024-02-15T10:32:03;9.20;;;5.55;;
70985;SDS011;58645;43.068;25.610;2024-02-15T10:34:44;8.13;;;4.85;;
70985;SDS011;58645;43.068;25.610;2024-02-15T10:37:11;8.13;;;6.03;;
70985;SDS011;58645;43.068;25.610;2024-02-15T10:42:33;8.27;;;4.88;;
70985;SDS011;58645;43.068;25.610;2024-02-15T10:45:03;7.80;;;4.97;;
70985;SDS011;58645;43.068;25.610;2024-02-15T10:47:30;9.25;;;5.47;;
70985;SDS011;58645;43.068;25.610;2024-02-15T10:49:59;7.65;;;4.65;;
70985;SDS011;58645;43.068;25.610;2024-02-15T10:52:25;9.40;;;5.78;;
70985;SDS011;58645;43.068;25.610;2024-02-15T10:55:04;8.40;;;4.68;;
70985;SDS011;58645;43.068;25.610;2024-02-15T10:57:55;11.73;;;6.88;;
70985;SDS011;58645;43.068;25.610;2024-02-15T11:00:34;9.65;;;6.10;;
70985;SDS011;58645;43.068;25.610;2024-02-15T11:03:12;8.43;;;5.93;;
70985;SDS011;58645;43.068;25.610;2024-02-15T11:06:03;7.93;;;5.20;;
70985;SDS011;58645;43.068;25.610;2024-02-15T11:08:42;8.02;;;4.85;;
70985;SDS011;58645;43.068;25.610;2024-02-15T11:11:21;9.18;;;6.05;;
70985;SDS011;58645;43.068;25.610;2024-02-15T11:14:30;10.98;;;5.18;;
70985;SDS011;58645;43.068;25.610;2024-02-15T11:17:00;8.85;;;5.03;;
70985;SDS011;58645;43.068;25.610;2024-02-15T11:22:00;11.23;;;5.35;;
70985;SDS011;58645;43.068;25.610;2024-02-15T11:24:31;11.55;;;5.78;;
70985;SDS011;58645;43.068;25.610;2024-02-15T11:27:00;9.35;;;5.85;;
70985;SDS011;58645;43.068;25.610;2024-02-15T11:29:49;8.73;;;5.20;;
70985;SDS011;58645;43.068;25.610;2024-02-15T11:32:41;8.43;;;5.43;;
70985;SDS011;58645;43.068;25.610;2024-02-15T11:35:16;11.73;;;5.82;;
70985;SDS011;58645;43.068;25.610;2024-02-15T11:40:15;9.60;;;5.95;;
70985;SDS011;58645;43.068;25.610;2024-02-15T11:42:52;8.07;;;5.93;;
70985;SDS011;58645;43.068;25.610;2024-02-15T11:45:20;8.45;;;4.68;;
70985;SDS011;58645;43.068;25.610;2024-02-15T11:47:49;10.18;;;5.15;;
70985;SDS011;58645;43.068;25.610;2024-02-15T11:50:20;10.75;;;5.03;;
70985;SDS011;58645;43.068;25.610;2024-02-15T11:52:47;8.27;;;5.35;;
70985;SDS011;58645;43.068;25.610;2024-02-15T11:55:17;9.07;;;5.82;;
70985;SDS011;58645;43.068;25.610;2024-02-15T12:00:28;10.05;;;4.72;;
70985;SDS011;58645;43.068;25.610;2024-02-15T12:03:13;8.38;;;5.30;;
70985;SDS011;58645;43.068;25.610;2024-02-15T12:06:04;8.23;;;5.40;;
70985;SDS011;58645;43.068;25.610;2024-02-15T12:08:51;9.02;;;6.00;;
70985;SDS011;58645;43.068;25.610;2024-02-15T12:11:36;8.85;;;5.60;;
70985;SDS011;58645;43.068;25.610;2024-02-15T12:14:21;9.48;;;4.80;;
70985;SDS011;58645;43.068;25.610;2024-02-15T12:17:06;8.07;;;4.28;;
70985;SDS011;58645;43.068;25.610;2024-02-15T12:19:52;12.88;;;5.18;;
70985;SDS011;58645;43.068;25.610;2024-02-15T12:25:26;8.48;;;4.70;;
70985;SDS011;58645;43.068;25.610;2024-02-15T12:27:58;7.10;;;4.80;;
70985;SDS011;58645;43.068;25.610;2024-02-15T12:30:39;9.95;;;4.90;;
70985;SDS011;58645;43.068;25.610;2024-02-15T12:33:31;9.18;;;4.78;;
70985;SDS011;58645;43.068;25.610;2024-02-15T12:38:33;7.78;;;5.35;;
70985;SDS011;58645;43.068;25.610;2024-02-15T12:41:20;8.00;;;5.50;;
70985;SDS011;58645;43.068;25.610;2024-02-15T12:43:46;9.10;;;5.78;;
70985;SDS011;58645;43.068;25.610;2024-02-15T12:46:28;8.02;;;4.75;;
70985;SDS011;58645;43.068;25.610;2024-02-15T12:49:10;8.32;;;5.28;;
70985;SDS011;58645;43.068;25.610;2024-02-15T12:51:53;8.27;;;5.05;;
70985;SDS011;58645;43.068;25.610;2024-02-15T12:54:39;9.32;;;5.90;;
70985;SDS011;58645;43.068;25.610;2024-02-15T12:57:07;7.80;;;4.18;;
70985;SDS011;58645;43.068;25.610;2024-02-15T12:59:37;8.38;;;5.65;;
70985;SDS011;58645;43.068;25.610;2024-02-15T13:02:04;7.55;;;4.68;;
70985;SDS011;58645;43.068;25.610;2024-02-15T13:04:30;7.25;;;4.57;;
70985;SDS011;58645;43.068;25.610;2024-02-15T13:06:56;8.23;;;4.63;;
70985;SDS011;58645;43.068;25.610;2024-02-15T13:09:22;11.55;;;6.70;;
70985;SDS011;58645;43.068;25.610;2024-02-15T13:11:48;8.57;;;5.38;;
70985;SDS011;58645;43.068;25.610;2024-02-15T13:14:15;8.85;;;4.78;;
70985;SDS011;58645;43.068;25.610;2024-02-15T13:19:11;9.75;;;5.50;;
70985;SDS011;58645;43.068;25.610;2024-02-15T13:21:37;9.82;;;5.53;;
70985;SDS011;58645;43.068;25.610;2024-02-15T13:24:03;8.27;;;5.57;;
70985;SDS011;58645;43.068;25.610;2024-02-15T13:26:30;11.13;;;6.70;;
70985;SDS011;58645;43.068;25.610;2024-02-15T13:28:59;9.18;;;5.13;;
70985;SDS011;58645;43.068;25.610;2024-02-15T13:31:25;9.57;;;5.00;;
70985;SDS011;58645;43.068;25.610;2024-02-15T13:33:52;8.75;;;5.03;;
70985;SDS011;58645;43.068;25.610;2024-02-15T13:36:18;9.20;;;5.45;;
70985;SDS011;58645;43.068;25.610;2024-02-15T13:38:49;12.38;;;5.35;;
70985;SDS011;58645;43.068;25.610;2024-02-15T13:41:16;10.32;;;5.10;;
70985;SDS011;58645;43.068;25.610;2024-02-15T13:43:42;7.70;;;4.65;;
70985;SDS011;58645;43.068;25.610;2024-02-15T13:46:08;7.82;;;5.55;;
70985;SDS011;58645;43.068;25.610;2024-02-15T13:48:33;8.35;;;5.53;;
70985;SDS011;58645;43.068;25.610;2024-02-15T13:50:59;8.35;;;5.22;;
70985;SDS011;58645;43.068;25.610;2024-02-15T13:53:29;8.00;;;4.40;;
70985;SDS011;58645;43.068;25.610;2024-02-15T13:55:58;9.32;;;5.38;;
70985;SDS011;58645;43.068;25.610;2024-02-15T13:58:30;8.25;;;5.35;;
70985;SDS011;58645;43.068;25.610;2024-02-15T14:00:59;8.70;;;5.25;;
70985;SDS011;58645;43.068;25.610;2024-02-15T14:03:28;8.40;;;5.00;;
70985;SDS011;58645;43.068;25.610;2024-02-15T14:05:54;11.10;;;6.80;;
70985;SDS011;58645;43.068;25.610;2024-02-15T14:08:20;11.32;;;5.35;;
70985;SDS011;58645;43.068;25.610;2024-02-15T14:10:47;8.70;;;6.13;;
70985;SDS011;58645;43.068;25.610;2024-02-15T14:13:13;10.55;;;5.13;;
70985;SDS011;58645;43.068;25.610;2024-02-15T14:15:39;10.23;;;6.20;;
70985;SDS011;58645;43.068;25.610;2024-02-15T14:18:06;11.73;;;7.18;;
70985;SDS011;58645;43.068;25.610;2024-02-15T14:20:36;12.10;;;6.40;;
70985;SDS011;58645;43.068;25.610;2024-02-15T14:23:26;13.43;;;7.43;;
70985;SDS011;58645;43.068;25.610;2024-02-15T14:25:53;11.18;;;6.05;;
70985;SDS011;58645;43.068;25.610;2024-02-15T14:28:25;13.07;;;7.53;;
70985;SDS011;58645;43.068;25.610;2024-02-15T14:30:51;14.55;;;8.85;;
70985;SDS011;58645;43.068;25.610;2024-02-15T14:33:35;13.80;;;7.43;;
70985;SDS011;58645;43.068;25.610;2024-02-15T14:36:04;14.93;;;7.20;;
70985;SDS011;58645;43.068;25.610;2024-02-15T14:38:30;15.45;;;8.85;;
70985;SDS011;58645;43.068;25.610;2024-02-15T14:40:59;14.90;;;7.28;;
70985;SDS011;58645;43.068;25.610;2024-02-15T14:43:27;12.32;;;7.65;;
70985;SDS011;58645;43.068;25.610;2024-02-15T14:45:53;12.98;;;8.13;;
70985;SDS011;58645;43.068;25.610;2024-02-15T14:48:21;13.98;;;7.90;;
70985;SDS011;58645;43.068;25.610;2024-02-15T14:50:49;12.20;;;7.45;;
70985;SDS011;58645;43.068;25.610;2024-02-15T14:53:15;12.50;;;6.28;;
70985;SDS011;58645;43.068;25.610;2024-02-15T14:55:43;12.02;;;7.72;;
70985;SDS011;58645;43.068;25.610;2024-02-15T14:58:12;12.25;;;6.53;;
70985;SDS011;58645;43.068;25.610;2024-02-15T15:03:22;11.18;;;6.13;;
70985;SDS011;58645;43.068;25.610;2024-02-15T15:05:48;13.65;;;7.35;;
70985;SDS011;58645;43.068;25.610;2024-02-15T15:08:32;13.93;;;7.88;;
70985;SDS011;58645;43.068;25.610;2024-02-15T15:11:16;13.73;;;7.50;;
70985;SDS011;58645;43.068;25.610;2024-02-15T15:14:01;13.90;;;8.05;;
70985;SDS011;58645;43.068;25.610;2024-02-15T15:16:29;14.15;;;7.50;;
70985;SDS011;58645;43.068;25.610;2024-02-15T15:18:57;15.90;;;8.27;;
70985;SDS011;58645;43.068;25.610;2024-02-15T15:21:23;12.15;;;7.63;;
70985;SDS011;58645;43.068;25.610;2024-02-15T15:23:52;11.75;;;6.60;;
70985;SDS011;58645;43.068;25.610;2024-02-15T15:28:47;13.68;;;7.63;;
70985;SDS011;58645;43.068;25.610;2024-02-15T15:31:17;13.38;;;8.18;;
70985;SDS011;58645;43.068;25.610;2024-02-15T15:33:45;12.13;;;7.63;;
70985;SDS011;58645;43.068;25.610;2024-02-15T15:36:16;13.90;;;8.23;;
70985;SDS011;58645;43.068;25.610;2024-02-15T15:38:44;14.07;;;7.30;;
70985;SDS011;58645;43.068;25.610;2024-02-15T15:41:10;14.68;;;8.80;;
70985;SDS011;58645;43.068;25.610;2024-02-15T15:43:39;15.90;;;9.35;;
70985;SDS011;58645;43.068;25.610;2024-02-15T15:46:04;13.70;;;8.55;;
70985;SDS011;58645;43.068;25.610;2024-02-15T15:48:30;15.20;;;8.85;;
70985;SDS011;58645;43.068;25.610;2024-02-15T15:50:57;13.85;;;7.30;;
70985;SDS011;58645;43.068;25.610;2024-02-15T15:53:24;15.45;;;9.77;;